sensor_id;sensor_type;location;lat;lon;timestamp;P1;durP1;ratioP1;P2;durP2;ratioP2
78004;SDS011;67209;51.698;-0.292;2023-02-15T00:01:47;35.95;;;16.60;;
78004;SDS011;67209;51.698;-0.292;2023-02-15T00:04:14;36.47;;;17.75;;
78004;SDS011;67209;51.698;-0.292;2023-02-15T00:06:40;36.45;;;17.20;;
78004;SDS011;67209;51.698;-0.292;2023-02-15T00:09:06;38.45;;;17.25;;
78004;SDS011;67209;51.698;-0.292;2023-02-15T00:11:32;39.85;;;19.08;;
78004;SDS011;67209;51.698;-0.292;2023-02-15T00:14:12;34.08;;;16.75;;
78004;SDS011;67209;51.698;-0.292;2023-02-15T00:16:39;34.50;;;16.50;;
78004;SDS011;67209;51.698;-0.292;2023-02-15T00:19:05;31.85;;;15.57;;
78004;SDS011;67209;51.698;-0.292;2023-02-15T00:21:32;35.88;;;16.55;;
78004;SDS011;67209;51.698;-0.292;2023-02-15T00:23:58;36.40;;;16.73;;
78004;SDS011;67209;51.698;-0.292;2023-02-15T00:26:25;33.40;;;15.88;;
78004;SDS011;67209;51.698;-0.292;2023-02-15T00:28:52;32.92;;;16.85;;
78004;SDS011;67209;51.698;-0.292;2023-02-15T00:31:18;31.55;;;16.38;;
78004;SDS011;67209;51.698;-0.292;2023-02-15T00:33:44;35.00;;;16.33;;
78004;SDS011;67209;51.698;-0.292;2023-02-15T00:36:10;36.45;;;16.25;;
78004;SDS011;67209;51.698;-0.292;2023-02-15T00:38:37;38.95;;;17.25;;
78004;SDS011;67209;51.698;-0.292;2023-02-15T00:41:03;34.92;;;17.10;;
78004;SDS011;67209;51.698;-0.292;2023-02-15T00:43:30;39.30;;;18.15;;
78004;SDS011;67209;51.698;-0.292;2023-02-15T00:45:57;35.35;;;16.90;;
78004;SDS011;67209;51.698;-0.292;2023-02-15T00:48:23;35.95;;;17.02;;
78004;SDS011;67209;51.698;-0.292;2023-02-15T00:50:50;34.38;;;16.98;;
78004;SDS011;67209;51.698;-0.292;2023-02-15T00:53:16;31.17;;;15.82;;
78004;SDS011;67209;51.698;-0.292;2023-02-15T00:55:42;31.35;;;16.48;;
78004;SDS011;67209;51.698;-0.292;2023-02-15T00:58:08;27.70;;;14.88;;
78004;SDS011;67209;51.698;-0.292;2023-02-15T01:00:35;31.77;;;15.73;;
78004;SDS011;67209;51.698;-0.292;2023-02-15T01:03:01;34.88;;;16.92;;
78004;SDS011;67209;51.698;-0.292;2023-02-15T01:05:27;34.35;;;16.40;;
78004;SDS011;67209;51.698;-0.292;2023-02-15T01:07:54;35.72;;;17.20;;
78004;SDS011;67209;51.698;-0.292;2023-02-15T01:10:20;37.08;;;17.63;;
78004;SDS011;67209;51.698;-0.292;2023-02-15T01:12:47;36.72;;;16.65;;
78004;SDS011;67209;51.698;-0.292;2023-02-15T01:15:13;39.92;;;18.67;;
78004;SDS011;67209;51.698;-0.292;2023-02-15T01:17:39;35.85;;;17.23;;
78004;SDS011;67209;51.698;-0.292;2023-02-15T01:20:05;31.08;;;15.48;;
78004;SDS011;67209;51.698;-0.292;2023-02-15T01:22:32;36.17;;;17.08;;
78004;SDS011;67209;51.698;-0.292;2023-02-15T01:24:58;39.95;;;19.08;;
78004;SDS011;67209;51.698;-0.292;2023-02-15T01:27:24;37.47;;;17.90;;
78004;SDS011;67209;51.698;-0.292;2023-02-15T01:29:50;42.03;;;19.65;;
78004;SDS011;67209;51.698;-0.292;2023-02-15T01:32:16;41.58;;;19.85;;
78004;SDS011;67209;51.698;-0.292;2023-02-15T01:34:42;47.72;;;21.27;;
78004;SDS011;67209;51.698;-0.292;2023-02-15T01:37:08;44.50;;;20.83;;
78004;SDS011;67209;51.698;-0.292;2023-02-15T01:39:34;43.20;;;19.83;;
78004;SDS011;67209;51.698;-0.292;2023-02-15T01:42:00;45.10;;;20.52;;
78004;SDS011;67209;51.698;-0.292;2023-02-15T01:47:11;43.17;;;19.27;;
78004;SDS011;67209;51.698;-0.292;2023-02-15T01:49:39;42.55;;;19.60;;
78004;SDS011;67209;51.698;-0.292;2023-02-15T01:52:06;45.40;;;19.85;;
78004;SDS011;67209;51.698;-0.292;2023-02-15T01:54:33;45.15;;;18.45;;
78004;SDS011;67209;51.698;-0.292;2023-02-15T01:57:02;42.17;;;19.60;;
78004;SDS011;67209;51.698;-0.292;2023-02-15T01:59:29;44.38;;;19.02;;
78004;SDS011;67209;51.698;-0.292;2023-02-15T02:01:57;42.80;;;19.85;;
78004;SDS011;67209;51.698;-0.292;2023-02-15T02:06:49;34.30;;;16.08;;
78004;SDS011;67209;51.698;-0.292;2023-02-15T02:09:16;32.50;;;15.68;;
78004;SDS011;67209;51.698;-0.292;2023-02-15T02:11:42;35.08;;;17.95;;
78004;SDS011;67209;51.698;-0.292;2023-02-15T02:14:10;37.88;;;17.45;;
78004;SDS011;67209;51.698;-0.292;2023-02-15T02:16:46;42.65;;;19.38;;
78004;SDS011;67209;51.698;-0.292;2023-02-15T02:27:48;43.15;;;19.90;;
78004;SDS011;67209;51.698;-0.292;2023-02-15T02:40:36;37.65;;;17.42;;
78004;SDS011;67209;51.698;-0.292;2023-02-15T02:43:10;41.92;;;19.52;;
78004;SDS011;67209;51.698;-0.292;2023-02-15T02:45:41;40.33;;;19.88;;
78004;SDS011;67209;51.698;-0.292;2023-02-15T02:48:13;43.50;;;19.10;;
78004;SDS011;67209;51.698;-0.292;2023-02-15T02:50:40;41.38;;;20.00;;
78004;SDS011;67209;51.698;-0.292;2023-02-15T02:53:07;40.50;;;19.23;;
78004;SDS011;67209;51.698;-0.292;2023-02-15T02:55:35;39.53;;;18.88;;
78004;SDS011;67209;51.698;-0.292;2023-02-15T03:00:37;42.78;;;20.50;;
78004;SDS011;67209;51.698;-0.292;2023-02-15T03:03:05;47.97;;;19.85;;
78004;SDS011;67209;51.698;-0.292;2023-02-15T03:05:34;48.88;;;21.27;;
78004;SDS011;67209;51.698;-0.292;2023-02-15T03:08:03;46.70;;;21.95;;
78004;SDS011;67209;51.698;-0.292;2023-02-15T03:10:35;49.33;;;20.00;;
78004;SDS011;67209;51.698;-0.292;2023-02-15T03:13:02;42.47;;;19.92;;
78004;SDS011;67209;51.698;-0.292;2023-02-15T03:15:33;46.28;;;20.88;;
78004;SDS011;67209;51.698;-0.292;2023-02-15T03:18:20;44.05;;;21.13;;
78004;SDS011;67209;51.698;-0.292;2023-02-15T03:20:48;49.45;;;21.98;;
78004;SDS011;67209;51.698;-0.292;2023-02-15T03:23:20;43.38;;;20.02;;
78004;SDS011;67209;51.698;-0.292;2023-02-15T03:25:57;45.00;;;20.20;;
78004;SDS011;67209;51.698;-0.292;2023-02-15T03:28:26;39.30;;;18.70;;
78004;SDS011;67209;51.698;-0.292;2023-02-15T03:30:55;40.92;;;20.48;;
78004;SDS011;67209;51.698;-0.292;2023-02-15T03:33:21;44.47;;;19.95;;
78004;SDS011;67209;51.698;-0.292;2023-02-15T03:38:25;43.33;;;20.20;;
78004;SDS011;67209;51.698;-0.292;2023-02-15T03:40:54;38.25;;;19.67;;
78004;SDS011;67209;51.698;-0.292;2023-02-15T03:48:50;39.75;;;19.17;;
78004;SDS011;67209;51.698;-0.292;2023-02-15T03:51:18;41.83;;;20.08;;
78004;SDS011;67209;51.698;-0.292;2023-02-15T03:56:27;50.47;;;20.73;;
78004;SDS011;67209;51.698;-0.292;2023-02-15T03:58:53;43.08;;;19.00;;
78004;SDS011;67209;51.698;-0.292;2023-02-15T04:01:44;45.10;;;21.02;;
78004;SDS011;67209;51.698;-0.292;2023-02-15T04:06:51;45.92;;;21.15;;
78004;SDS011;67209;51.698;-0.292;2023-02-15T04:09:17;44.97;;;21.23;;
78004;SDS011;67209;51.698;-0.292;2023-02-15T04:12:01;42.35;;;19.80;;
78004;SDS011;67209;51.698;-0.292;2023-02-15T04:14:27;38.72;;;19.65;;
78004;SDS011;67209;51.698;-0.292;2023-02-15T04:17:12;53.83;;;21.80;;
78004;SDS011;67209;51.698;-0.292;2023-02-15T04:19:38;51.83;;;22.02;;
78004;SDS011;67209;51.698;-0.292;2023-02-15T04:22:22;43.90;;;20.85;;
78004;SDS011;67209;51.698;-0.292;2023-02-15T04:25:07;51.50;;;21.38;;
78004;SDS011;67209;51.698;-0.292;2023-02-15T04:27:41;49.70;;;21.58;;
78004;SDS011;67209;51.698;-0.292;2023-02-15T04:30:08;52.63;;;21.92;;
78004;SDS011;67209;51.698;-0.292;2023-02-15T04:32:34;55.70;;;23.17;;
78004;SDS011;67209;51.698;-0.292;2023-02-15T04:35:01;53.97;;;23.33;;
78004;SDS011;67209;51.698;-0.292;2023-02-15T04:37:27;57.25;;;22.90;;
78004;SDS011;67209;51.698;-0.292;2023-02-15T04:39:53;53.25;;;22.42;;
78004;SDS011;67209;51.698;-0.292;2023-02-15T04:42:19;53.33;;;24.98;;
78004;SDS011;67209;51.698;-0.292;2023-02-15T04:44:45;57.88;;;25.20;;
78004;SDS011;67209;51.698;-0.292;2023-02-15T04:47:12;53.08;;;22.92;;
78004;SDS011;67209;51.698;-0.292;2023-02-15T04:49:38;53.00;;;23.20;;
78004;SDS011;67209;51.698;-0.292;2023-02-15T04:52:04;53.15;;;24.33;;
78004;SDS011;67209;51.698;-0.292;2023-02-15T04:54:29;49.45;;;22.85;;
78004;SDS011;67209;51.698;-0.292;2023-02-15T04:56:55;54.83;;;23.52;;
78004;SDS011;67209;51.698;-0.292;2023-02-15T04:59:21;45.38;;;21.00;;
78004;SDS011;67209;51.698;-0.292;2023-02-15T05:01:47;48.75;;;21.48;;
78004;SDS011;67209;51.698;-0.292;2023-02-15T05:04:13;45.75;;;21.83;;
78004;SDS011;67209;51.698;-0.292;2023-02-15T05:06:39;54.17;;;23.27;;
78004;SDS011;67209;51.698;-0.292;2023-02-15T05:09:05;52.53;;;23.83;;
78004;SDS011;67209;51.698;-0.292;2023-02-15T05:11:31;51.83;;;22.33;;
78004;SDS011;67209;51.698;-0.292;2023-02-15T05:13:57;56.08;;;22.17;;
78004;SDS011;67209;51.698;-0.292;2023-02-15T05:16:23;52.38;;;23.40;;
78004;SDS011;67209;51.698;-0.292;2023-02-15T05:18:50;47.72;;;21.45;;
78004;SDS011;67209;51.698;-0.292;2023-02-15T05:21:16;47.00;;;20.38;;
78004;SDS011;67209;51.698;-0.292;2023-02-15T05:23:42;53.58;;;22.95;;
78004;SDS011;67209;51.698;-0.292;2023-02-15T05:26:10;54.22;;;24.35;;
78004;SDS011;67209;51.698;-0.292;2023-02-15T05:28:55;53.78;;;23.13;;
78004;SDS011;67209;51.698;-0.292;2023-02-15T05:31:21;50.45;;;22.35;;
78004;SDS011;67209;51.698;-0.292;2023-02-15T05:33:47;59.03;;;22.70;;
78004;SDS011;67209;51.698;-0.292;2023-02-15T05:36:13;51.72;;;23.40;;
78004;SDS011;67209;51.698;-0.292;2023-02-15T05:38:39;54.78;;;24.50;;
78004;SDS011;67209;51.698;-0.292;2023-02-15T05:41:06;61.33;;;25.02;;
78004;SDS011;67209;51.698;-0.292;2023-02-15T05:43:32;58.80;;;25.20;;
78004;SDS011;67209;51.698;-0.292;2023-02-15T05:45:58;63.90;;;27.15;;
78004;SDS011;67209;51.698;-0.292;2023-02-15T05:48:25;59.65;;;27.17;;
78004;SDS011;67209;51.698;-0.292;2023-02-15T05:50:59;63.70;;;25.20;;
78004;SDS011;67209;51.698;-0.292;2023-02-15T05:53:26;65.25;;;26.83;;
78004;SDS011;67209;51.698;-0.292;2023-02-15T05:55:52;70.10;;;28.45;;
78004;SDS011;67209;51.698;-0.292;2023-02-15T05:58:19;70.40;;;27.10;;
78004;SDS011;67209;51.698;-0.292;2023-02-15T06:00:45;64.75;;;25.77;;
78004;SDS011;67209;51.698;-0.292;2023-02-15T06:03:11;61.08;;;29.10;;
78004;SDS011;67209;51.698;-0.292;2023-02-15T06:05:37;56.50;;;27.70;;
78004;SDS011;67209;51.698;-0.292;2023-02-15T06:08:03;50.80;;;25.02;;
78004;SDS011;67209;51.698;-0.292;2023-02-15T06:10:29;56.70;;;25.08;;
78004;SDS011;67209;51.698;-0.292;2023-02-15T06:12:55;63.03;;;28.05;;
78004;SDS011;67209;51.698;-0.292;2023-02-15T06:15:21;71.70;;;28.70;;
78004;SDS011;67209;51.698;-0.292;2023-02-15T06:17:47;65.30;;;27.80;;
78004;SDS011;67209;51.698;-0.292;2023-02-15T06:20:13;60.83;;;27.13;;
78004;SDS011;67209;51.698;-0.292;2023-02-15T06:22:39;73.18;;;28.40;;
78004;SDS011;67209;51.698;-0.292;2023-02-15T06:25:05;65.97;;;28.05;;
78004;SDS011;67209;51.698;-0.292;2023-02-15T06:27:34;66.35;;;27.48;;
78004;SDS011;67209;51.698;-0.292;2023-02-15T06:30:00;58.85;;;25.65;;
78004;SDS011;67209;51.698;-0.292;2023-02-15T06:32:26;58.38;;;26.20;;
78004;SDS011;67209;51.698;-0.292;2023-02-15T06:34:52;61.47;;;24.70;;
78004;SDS011;67209;51.698;-0.292;2023-02-15T06:37:18;58.45;;;24.95;;
78004;SDS011;67209;51.698;-0.292;2023-02-15T06:39:44;64.88;;;26.73;;
78004;SDS011;67209;51.698;-0.292;2023-02-15T06:42:10;61.58;;;25.27;;
78004;SDS011;67209;51.698;-0.292;2023-02-15T06:44:36;56.20;;;25.15;;
78004;SDS011;67209;51.698;-0.292;2023-02-15T06:47:02;67.15;;;26.73;;
78004;SDS011;67209;51.698;-0.292;2023-02-15T06:49:28;66.78;;;28.08;;
78004;SDS011;67209;51.698;-0.292;2023-02-15T06:51:54;78.65;;;30.77;;
78004;SDS011;67209;51.698;-0.292;2023-02-15T06:54:20;89.20;;;32.83;;
78004;SDS011;67209;51.698;-0.292;2023-02-15T06:56:46;89.50;;;33.33;;
78004;SDS011;67209;51.698;-0.292;2023-02-15T06:59:12;86.97;;;32.25;;
78004;SDS011;67209;51.698;-0.292;2023-02-15T07:01:38;86.40;;;33.35;;
78004;SDS011;67209;51.698;-0.292;2023-02-15T07:04:04;83.32;;;32.95;;
78004;SDS011;67209;51.698;-0.292;2023-02-15T07:06:31;89.95;;;33.70;;
78004;SDS011;67209;51.698;-0.292;2023-02-15T07:08:58;85.85;;;32.72;;
78004;SDS011;67209;51.698;-0.292;2023-02-15T07:11:24;78.45;;;31.48;;
78004;SDS011;67209;51.698;-0.292;2023-02-15T07:14:09;80.47;;;32.47;;
78004;SDS011;67209;51.698;-0.292;2023-02-15T07:16:35;80.22;;;31.92;;
78004;SDS011;67209;51.698;-0.292;2023-02-15T07:19:01;75.32;;;33.38;;
78004;SDS011;67209;51.698;-0.292;2023-02-15T07:21:27;76.22;;;31.02;;
78004;SDS011;67209;51.698;-0.292;2023-02-15T07:23:55;75.32;;;31.35;;
78004;SDS011;67209;51.698;-0.292;2023-02-15T07:26:21;86.45;;;32.35;;
78004;SDS011;67209;51.698;-0.292;2023-02-15T07:28:47;82.15;;;31.98;;
78004;SDS011;67209;51.698;-0.292;2023-02-15T07:31:13;75.75;;;31.20;;
78004;SDS011;67209;51.698;-0.292;2023-02-15T07:33:39;80.75;;;30.30;;
78004;SDS011;67209;51.698;-0.292;2023-02-15T07:36:06;82.22;;;30.17;;
78004;SDS011;67209;51.698;-0.292;2023-02-15T07:38:35;80.03;;;33.35;;
78004;SDS011;67209;51.698;-0.292;2023-02-15T07:41:02;83.90;;;32.70;;
78004;SDS011;67209;51.698;-0.292;2023-02-15T07:43:29;90.72;;;32.40;;
78004;SDS011;67209;51.698;-0.292;2023-02-15T07:45:59;82.82;;;32.30;;
78004;SDS011;67209;51.698;-0.292;2023-02-15T07:48:25;77.32;;;32.65;;
78004;SDS011;67209;51.698;-0.292;2023-02-15T07:50:51;68.75;;;26.90;;
78004;SDS011;67209;51.698;-0.292;2023-02-15T07:53:17;77.95;;;26.92;;
78004;SDS011;67209;51.698;-0.292;2023-02-15T07:55:43;52.70;;;23.73;;
78004;SDS011;67209;51.698;-0.292;2023-02-15T07:58:09;48.83;;;22.33;;
78004;SDS011;67209;51.698;-0.292;2023-02-15T08:00:35;49.83;;;22.40;;
78004;SDS011;67209;51.698;-0.292;2023-02-15T08:03:24;51.47;;;21.50;;
78004;SDS011;67209;51.698;-0.292;2023-02-15T08:05:57;53.67;;;22.65;;
78004;SDS011;67209;51.698;-0.292;2023-02-15T08:08:24;46.95;;;21.70;;
78004;SDS011;67209;51.698;-0.292;2023-02-15T08:11:00;49.78;;;22.00;;
78004;SDS011;67209;51.698;-0.292;2023-02-15T08:13:45;47.15;;;21.90;;
78004;SDS011;67209;51.698;-0.292;2023-02-15T08:16:18;49.17;;;21.70;;
78004;SDS011;67209;51.698;-0.292;2023-02-15T08:18:44;48.22;;;22.45;;
78004;SDS011;67209;51.698;-0.292;2023-02-15T08:21:10;52.00;;;21.63;;
78004;SDS011;67209;51.698;-0.292;2023-02-15T08:23:36;59.20;;;23.75;;
78004;SDS011;67209;51.698;-0.292;2023-02-15T08:26:02;54.70;;;23.42;;
78004;SDS011;67209;51.698;-0.292;2023-02-15T08:28:29;58.72;;;24.42;;
78004;SDS011;67209;51.698;-0.292;2023-02-15T08:30:56;53.03;;;21.27;;
78004;SDS011;67209;51.698;-0.292;2023-02-15T08:33:29;56.25;;;23.30;;
78004;SDS011;67209;51.698;-0.292;2023-02-15T08:35:55;54.00;;;24.23;;
78004;SDS011;67209;51.698;-0.292;2023-02-15T08:38:21;56.58;;;23.30;;
78004;SDS011;67209;51.698;-0.292;2023-02-15T08:40:47;53.38;;;23.42;;
78004;SDS011;67209;51.698;-0.292;2023-02-15T08:43:13;58.33;;;24.13;;
78004;SDS011;67209;51.698;-0.292;2023-02-15T08:45:39;60.15;;;23.95;;
78004;SDS011;67209;51.698;-0.292;2023-02-15T08:48:05;53.80;;;23.73;;
78004;SDS011;67209;51.698;-0.292;2023-02-15T08:50:31;58.85;;;23.98;;
78004;SDS011;67209;51.698;-0.292;2023-02-15T08:52:57;46.30;;;21.95;;
78004;SDS011;67209;51.698;-0.292;2023-02-15T08:55:23;53.22;;;23.30;;
78004;SDS011;67209;51.698;-0.292;2023-02-15T08:57:49;55.03;;;22.75;;
78004;SDS011;67209;51.698;-0.292;2023-02-15T09:00:15;48.50;;;21.92;;
78004;SDS011;67209;51.698;-0.292;2023-02-15T09:02:42;49.92;;;22.00;;
78004;SDS011;67209;51.698;-0.292;2023-02-15T09:05:08;54.22;;;24.35;;
78004;SDS011;67209;51.698;-0.292;2023-02-15T09:07:34;67.10;;;26.95;;
78004;SDS011;67209;51.698;-0.292;2023-02-15T09:10:00;69.47;;;27.45;;
78004;SDS011;67209;51.698;-0.292;2023-02-15T09:12:26;68.18;;;25.60;;
78004;SDS011;67209;51.698;-0.292;2023-02-15T09:14:52;70.10;;;30.00;;
78004;SDS011;67209;51.698;-0.292;2023-02-15T09:17:19;74.30;;;28.85;;
78004;SDS011;67209;51.698;-0.292;2023-02-15T09:19:45;80.57;;;29.98;;
78004;SDS011;67209;51.698;-0.292;2023-02-15T09:22:11;68.82;;;31.45;;
78004;SDS011;67209;51.698;-0.292;2023-02-15T09:24:37;69.65;;;29.02;;
78004;SDS011;67209;51.698;-0.292;2023-02-15T09:27:03;67.78;;;28.02;;
78004;SDS011;67209;51.698;-0.292;2023-02-15T09:29:29;70.75;;;28.23;;
78004;SDS011;67209;51.698;-0.292;2023-02-15T09:31:55;69.57;;;28.60;;
78004;SDS011;67209;51.698;-0.292;2023-02-15T09:34:22;68.57;;;28.85;;
78004;SDS011;67209;51.698;-0.292;2023-02-15T09:36:48;65.20;;;28.15;;
78004;SDS011;67209;51.698;-0.292;2023-02-15T09:46:46;58.58;;;26.83;;
78004;SDS011;67209;51.698;-0.292;2023-02-15T09:57:16;56.20;;;23.98;;
78004;SDS011;67209;51.698;-0.292;2023-02-15T10:00:30;60.08;;;22.88;;
78004;SDS011;67209;51.698;-0.292;2023-02-15T10:02:47;52.38;;;23.30;;
78004;SDS011;67209;51.698;-0.292;2023-02-15T10:08:27;44.45;;;21.58;;
78004;SDS011;67209;51.698;-0.292;2023-02-15T10:13:50;49.90;;;22.23;;
78004;SDS011;67209;51.698;-0.292;2023-02-15T10:16:22;52.75;;;24.00;;
78004;SDS011;67209;51.698;-0.292;2023-02-15T10:24:21;50.67;;;22.83;;
78004;SDS011;67209;51.698;-0.292;2023-02-15T10:26:50;42.25;;;19.92;;
78004;SDS011;67209;51.698;-0.292;2023-02-15T10:29:27;50.70;;;22.63;;
78004;SDS011;67209;51.698;-0.292;2023-02-15T10:34:40;43.10;;;20.95;;
78004;SDS011;67209;51.698;-0.292;2023-02-15T10:57:56;38.70;;;18.40;;
78004;SDS011;67209;51.698;-0.292;2023-02-15T11:08:08;38.25;;;17.52;;
78004;SDS011;67209;51.698;-0.292;2023-02-15T11:10:37;37.63;;;19.17;;
78004;SDS011;67209;51.698;-0.292;2023-02-15T11:13:17;39.95;;;17.45;;
78004;SDS011;67209;51.698;-0.292;2023-02-15T11:18:24;39.20;;;19.02;;
78004;SDS011;67209;51.698;-0.292;2023-02-15T11:20:53;36.70;;;17.23;;
78004;SDS011;67209;51.698;-0.292;2023-02-15T11:23:20;27.70;;;14.07;;
78004;SDS011;67209;51.698;-0.292;2023-02-15T11:25:52;35.35;;;16.25;;
78004;SDS011;67209;51.698;-0.292;2023-02-15T11:28:43;37.70;;;16.27;;
78004;SDS011;67209;51.698;-0.292;2023-02-15T11:31:13;30.98;;;14.23;;
78004;SDS011;67209;51.698;-0.292;2023-02-15T11:33:42;31.48;;;15.10;;
78004;SDS011;67209;51.698;-0.292;2023-02-15T11:36:16;34.30;;;16.52;;
78004;SDS011;67209;51.698;-0.292;2023-02-15T11:38:44;33.72;;;16.77;;
78004;SDS011;67209;51.698;-0.292;2023-02-15T11:41:11;39.10;;;17.33;;
78004;SDS011;67209;51.698;-0.292;2023-02-15T11:46:11;31.75;;;15.25;;
78004;SDS011;67209;51.698;-0.292;2023-02-15T11:48:37;33.33;;;15.70;;
78004;SDS011;67209;51.698;-0.292;2023-02-15T11:51:04;33.30;;;16.48;;
78004;SDS011;67209;51.698;-0.292;2023-02-15T11:53:33;29.95;;;15.75;;
78004;SDS011;67209;51.698;-0.292;2023-02-15T11:56:01;31.95;;;16.33;;
78004;SDS011;67209;51.698;-0.292;2023-02-15T12:01:13;30.15;;;15.20;;
78004;SDS011;67209;51.698;-0.292;2023-02-15T12:03:50;38.00;;;17.25;;
78004;SDS011;67209;51.698;-0.292;2023-02-15T12:06:24;31.30;;;15.85;;
78004;SDS011;67209;51.698;-0.292;2023-02-15T12:09:02;31.52;;;16.08;;
78004;SDS011;67209;51.698;-0.292;2023-02-15T12:11:33;31.40;;;14.95;;
78004;SDS011;67209;51.698;-0.292;2023-02-15T12:14:01;34.28;;;15.60;;
78004;SDS011;67209;51.698;-0.292;2023-02-15T12:16:27;29.75;;;15.00;;
78004;SDS011;67209;51.698;-0.292;2023-02-15T12:18:58;27.83;;;13.65;;
78004;SDS011;67209;51.698;-0.292;2023-02-15T12:21:33;32.10;;;14.82;;
78004;SDS011;67209;51.698;-0.292;2023-02-15T12:24:03;31.45;;;14.80;;
78004;SDS011;67209;51.698;-0.292;2023-02-15T12:26:31;27.42;;;13.30;;
78004;SDS011;67209;51.698;-0.292;2023-02-15T12:29:16;29.80;;;13.80;;
78004;SDS011;67209;51.698;-0.292;2023-02-15T12:31:46;25.92;;;13.65;;
78004;SDS011;67209;51.698;-0.292;2023-02-15T12:37:17;27.50;;;13.05;;
78004;SDS011;67209;51.698;-0.292;2023-02-15T12:39:53;24.73;;;12.52;;
78004;SDS011;67209;51.698;-0.292;2023-02-15T12:42:22;25.63;;;12.35;;
78004;SDS011;67209;51.698;-0.292;2023-02-15T12:47:21;22.70;;;11.52;;
78004;SDS011;67209;51.698;-0.292;2023-02-15T12:50:34;22.13;;;11.00;;
78004;SDS011;67209;51.698;-0.292;2023-02-15T12:52:41;20.45;;;8.93;;
78004;SDS011;67209;51.698;-0.292;2023-02-15T12:55:18;28.92;;;12.68;;
78004;SDS011;67209;51.698;-0.292;2023-02-15T12:57:45;24.10;;;12.30;;
78004;SDS011;67209;51.698;-0.292;2023-02-15T13:02:51;16.27;;;9.90;;
78004;SDS011;67209;51.698;-0.292;2023-02-15T13:07:48;23.80;;;10.88;;
78004;SDS011;67209;51.698;-0.292;2023-02-15T13:10:20;21.17;;;9.90;;
78004;SDS011;67209;51.698;-0.292;2023-02-15T13:12:47;22.92;;;10.80;;
78004;SDS011;67209;51.698;-0.292;2023-02-15T13:15:22;23.08;;;10.50;;
78004;SDS011;67209;51.698;-0.292;2023-02-15T13:17:49;22.73;;;11.27;;
78004;SDS011;67209;51.698;-0.292;2023-02-15T13:20:16;19.38;;;9.10;;
78004;SDS011;67209;51.698;-0.292;2023-02-15T13:22:44;20.63;;;11.88;;
78004;SDS011;67209;51.698;-0.292;2023-02-15T13:25:19;25.00;;;10.95;;
78004;SDS011;67209;51.698;-0.292;2023-02-15T13:27:48;19.17;;;10.80;;
78004;SDS011;67209;51.698;-0.292;2023-02-15T13:32:45;21.35;;;10.90;;
78004;SDS011;67209;51.698;-0.292;2023-02-15T13:35:15;19.17;;;9.50;;
78004;SDS011;67209;51.698;-0.292;2023-02-15T13:37:45;18.60;;;8.90;;
78004;SDS011;67209;51.698;-0.292;2023-02-15T13:40:17;17.25;;;9.23;;
78004;SDS011;67209;51.698;-0.292;2023-02-15T13:58:09;16.58;;;7.45;;
78004;SDS011;67209;51.698;-0.292;2023-02-15T14:00:48;15.07;;;7.25;;
78004;SDS011;67209;51.698;-0.292;2023-02-15T14:03:26;16.33;;;7.53;;
78004;SDS011;67209;51.698;-0.292;2023-02-15T14:06:00;16.60;;;8.13;;
78004;SDS011;67209;51.698;-0.292;2023-02-15T14:11:02;16.45;;;7.22;;
78004;SDS011;67209;51.698;-0.292;2023-02-15T14:13:41;14.65;;;6.82;;
78004;SDS011;67209;51.698;-0.292;2023-02-15T14:31:54;10.05;;;5.07;;
78004;SDS011;67209;51.698;-0.292;2023-02-15T14:36:48;11.50;;;5.53;;
78004;SDS011;67209;51.698;-0.292;2023-02-15T14:42:20;10.25;;;4.68;;
78004;SDS011;67209;51.698;-0.292;2023-02-15T14:44:53;10.52;;;4.53;;
78004;SDS011;67209;51.698;-0.292;2023-02-15T14:47:23;9.65;;;4.32;;
78004;SDS011;67209;51.698;-0.292;2023-02-15T14:49:51;13.63;;;6.00;;
78004;SDS011;67209;51.698;-0.292;2023-02-15T14:52:17;9.68;;;4.63;;
78004;SDS011;67209;51.698;-0.292;2023-02-15T15:04:35;11.32;;;4.53;;
78004;SDS011;67209;51.698;-0.292;2023-02-15T15:09:29;12.23;;;4.70;;
78004;SDS011;67209;51.698;-0.292;2023-02-15T15:12:18;11.27;;;4.57;;
78004;SDS011;67209;51.698;-0.292;2023-02-15T15:15:01;8.55;;;4.57;;
78004;SDS011;67209;51.698;-0.292;2023-02-15T15:20:00;11.75;;;5.15;;
78004;SDS011;67209;51.698;-0.292;2023-02-15T15:22:27;10.57;;;4.75;;
78004;SDS011;67209;51.698;-0.292;2023-02-15T15:40:28;9.50;;;3.00;;
78004;SDS011;67209;51.698;-0.292;2023-02-15T15:48:27;9.30;;;5.13;;
78004;SDS011;67209;51.698;-0.292;2023-02-15T15:50:57;11.98;;;4.68;;
78004;SDS011;67209;51.698;-0.292;2023-02-15T15:53:24;7.35;;;4.00;;
78004;SDS011;67209;51.698;-0.292;2023-02-15T15:55:52;9.18;;;5.13;;
78004;SDS011;67209;51.698;-0.292;2023-02-15T15:58:20;12.38;;;5.28;;
78004;SDS011;67209;51.698;-0.292;2023-02-15T16:00:50;10.27;;;4.82;;
78004;SDS011;67209;51.698;-0.292;2023-02-15T16:03:21;12.05;;;4.53;;
78004;SDS011;67209;51.698;-0.292;2023-02-15T16:05:47;9.98;;;4.65;;
78004;SDS011;67209;51.698;-0.292;2023-02-15T16:08:31;10.95;;;4.68;;
78004;SDS011;67209;51.698;-0.292;2023-02-15T16:10:57;9.63;;;4.38;;
78004;SDS011;67209;51.698;-0.292;2023-02-15T16:13:24;10.57;;;4.75;;
78004;SDS011;67209;51.698;-0.292;2023-02-15T16:15:54;8.40;;;4.22;;
78004;SDS011;67209;51.698;-0.292;2023-02-15T16:18:22;10.10;;;4.40;;
78004;SDS011;67209;51.698;-0.292;2023-02-15T16:20:58;7.72;;;4.47;;
78004;SDS011;67209;51.698;-0.292;2023-02-15T16:28:38;9.52;;;4.50;;
78004;SDS011;67209;51.698;-0.292;2023-02-15T16:31:23;8.73;;;4.10;;
78004;SDS011;67209;51.698;-0.292;2023-02-15T16:33:51;10.82;;;3.97;;
78004;SDS011;67209;51.698;-0.292;2023-02-15T16:36:22;10.55;;;4.05;;
78004;SDS011;67209;51.698;-0.292;2023-02-15T16:41:21;8.57;;;4.18;;
78004;SDS011;67209;51.698;-0.292;2023-02-15T16:43:48;11.38;;;4.13;;
78004;SDS011;67209;51.698;-0.292;2023-02-15T16:46:15;9.77;;;4.03;;
78004;SDS011;67209;51.698;-0.292;2023-02-15T16:48:43;11.63;;;3.70;;
78004;SDS011;67209;51.698;-0.292;2023-02-15T16:51:13;10.20;;;4.45;;
78004;SDS011;67209;51.698;-0.292;2023-02-15T16:53:45;9.20;;;3.63;;
78004;SDS011;67209;51.698;-0.292;2023-02-15T16:56:13;11.23;;;4.78;;
78004;SDS011;67209;51.698;-0.292;2023-02-15T16:58:41;13.55;;;4.13;;
78004;SDS011;67209;51.698;-0.292;2023-02-15T17:01:08;9.27;;;4.13;;
78004;SDS011;67209;51.698;-0.292;2023-02-15T17:03:36;10.57;;;4.07;;
78004;SDS011;67209;51.698;-0.292;2023-02-15T17:06:02;9.35;;;3.92;;
78004;SDS011;67209;51.698;-0.292;2023-02-15T17:08:42;12.40;;;4.63;;
78004;SDS011;67209;51.698;-0.292;2023-02-15T17:11:13;8.48;;;3.70;;
78004;SDS011;67209;51.698;-0.292;2023-02-15T17:13:42;10.55;;;4.00;;
78004;SDS011;67209;51.698;-0.292;2023-02-15T17:16:27;9.18;;;3.63;;
78004;SDS011;67209;51.698;-0.292;2023-02-15T17:18:54;9.88;;;3.80;;
78004;SDS011;67209;51.698;-0.292;2023-02-15T17:21:24;10.02;;;3.63;;
78004;SDS011;67209;51.698;-0.292;2023-02-15T17:23:51;7.90;;;3.55;;
78004;SDS011;67209;51.698;-0.292;2023-02-15T17:26:24;8.25;;;3.60;;
78004;SDS011;67209;51.698;-0.292;2023-02-15T17:28:53;5.50;;;3.25;;
78004;SDS011;67209;51.698;-0.292;2023-02-15T17:31:21;7.70;;;3.65;;
78004;SDS011;67209;51.698;-0.292;2023-02-15T17:33:47;7.65;;;3.40;;
78004;SDS011;67209;51.698;-0.292;2023-02-15T17:36:19;9.48;;;4.22;;
78004;SDS011;67209;51.698;-0.292;2023-02-15T17:41:31;9.90;;;3.78;;
78004;SDS011;67209;51.698;-0.292;2023-02-15T17:43:59;8.65;;;3.83;;
78004;SDS011;67209;51.698;-0.292;2023-02-15T17:46:25;15.07;;;4.05;;
78004;SDS011;67209;51.698;-0.292;2023-02-15T17:48:52;10.68;;;3.55;;